Time;durP1;ratioP1;P1;durP2;ratioP2;P2;SDS_P1;SDS_P2;PMS_P1;PMS_P2;Temp;Humidity;BMP_temperature;BMP_pressure;BME280_temperature;BME280_humidity;BME280_pressure;Samples;Min_cycle;Max_cycle;Signal;HPM_P1;HPM_P2
2024/04/07 00:01:21;;;;;;;7.73;2.40;;;16.20;1.80;;;;;;5076725;28;20450;-65
2024/04/07 00:03:48;;;;;;;9.10;1.80;;;16.10;1.80;;;;;;5074469;28;21003;-65
2024/04/07 00:06:13;;;;;;;5.10;1.80;;;16.10;1.80;;;;;;5072025;28;20831;-65
2024/04/07 00:08:41;;;;;;;6.33;2.87;;;15.90;1.60;;;;;;5071939;28;20461;-65
2024/04/07 00:11:07;;;;;;;5.83;2.10;;;15.90;1.70;;;;;;5083985;28;20200;-65
2024/04/07 00:13:34;;;;;;;5.17;1.57;;;15.90;3.60;;;;;;5084053;28;20820;-65
2024/04/07 00:16:00;;;;;;;7.73;2.87;;;15.80;1.60;;;;;;5077720;28;20725;-65
2024/04/07 00:18:27;;;;;;;8.10;2.20;;;15.80;1.60;;;;;;5087390;28;20457;-65
2024/04/07 00:21:00;;;;;;;7.37;2.60;;;15.70;1.50;;;;;;5077684;28;20462;-64
2024/04/07 00:23:26;;;;;;;7.50;2.00;;;15.70;1.60;;;;;;5075652;28;20482;-65
2024/04/07 00:25:54;;;;;;;6.50;2.00;;;15.70;3.20;;;;;;5075812;28;20445;-65
2024/04/07 00:28:21;;;;;;;8.67;1.73;;;15.60;2.00;;;;;;5083966;28;20462;-65
2024/04/07 00:30:47;;;;;;;7.30;2.73;;;15.60;8.10;;;;;;5075080;28;20457;-65
2024/04/07 00:33:14;;;;;;;8.83;2.03;;;15.50;9.00;;;;;;5075369;28;20493;-65
2024/04/07 00:35:40;;;;;;;7.30;2.10;;;15.50;9.00;;;;;;5083984;28;20482;-65
2024/04/07 00:38:06;;;;;;;10.87;3.27;;;15.40;8.90;;;;;;5075567;28;20839;-64
2024/04/07 00:40:32;;;;;;;7.67;2.00;;;15.40;8.90;;;;;;5075156;28;20200;-65
2024/04/07 00:43:00;;;;;;;9.33;2.30;;;15.40;8.90;;;;;;5083544;28;20850;-65
2024/04/07 00:45:27;;;;;;;11.57;3.27;;;15.40;1.30;;;;;;5075059;28;20453;-65
2024/04/07 00:47:53;;;;;;;14.73;3.80;;;15.60;1.40;;;;;;5083668;28;20511;-64
2024/04/07 00:50:20;;;;;;;11.47;2.70;;;15.60;9.10;;;;;;5074946;28;20454;-65
2024/04/07 00:52:47;;;;;;;8.83;2.50;;;15.50;9.00;;;;;;5075111;28;20519;-65
2024/04/07 00:55:13;;;;;;;7.70;2.80;;;15.60;9.00;;;;;;5074832;28;20474;-65
2024/04/07 00:57:40;;;;;;;13.53;3.10;;;15.50;1.30;;;;;;5074897;28;20458;-65
2024/04/07 01:00:09;;;;;;;6.80;2.13;;;15.70;1.40;;;;;;5085684;28;20608;-65
2024/04/07 01:02:36;;;;;;;13.03;2.40;;;15.90;1.50;;;;;;5079883;28;20822;-65
2024/04/07 01:05:02;;;;;;;10.30;3.30;;;16.00;1.70;;;;;;5075061;28;20453;-65
2024/04/07 01:07:29;;;;;;;14.10;2.80;;;16.00;1.70;;;;;;5080970;28;20855;-65
2024/04/07 01:09:56;;;;;;;9.43;2.13;;;16.00;1.70;;;;;;5076627;28;20485;-65
2024/04/07 01:12:35;;;;;;;7.20;2.17;;;16.00;1.70;;;;;;5074558;28;20460;-65
2024/04/07 01:15:01;;;;;;;9.33;2.47;;;16.00;1.70;;;;;;5085248;28;20485;-65
2024/04/07 01:17:30;;;;;;;14.17;2.63;;;16.00;1.70;;;;;;5080663;28;20454;-64
2024/04/07 01:19:56;;;;;;;10.90;2.87;;;16.00;1.70;;;;;;5073676;28;20214;-64
2024/04/07 01:22:25;;;;;;;9.23;2.43;;;16.00;1.70;;;;;;5073601;28;20450;-65
2024/04/07 01:24:52;;;;;;;11.27;3.80;;;16.00;2.40;;;;;;5074950;28;20471;-65
2024/04/07 01:27:19;;;;;;;8.10;2.00;;;15.90;1.60;;;;;;5086361;28;20462;-65
2024/04/07 01:29:45;;;;;;;7.10;2.80;;;15.90;1.60;;;;;;5077455;28;20981;-65
2024/04/07 01:32:12;;;;;;;9.40;2.10;;;15.90;1.90;;;;;;5086362;28;20457;-65
2024/04/07 01:34:38;;;;;;;5.90;2.13;;;15.80;3.50;;;;;;5094320;28;20216;-64
2024/04/07 01:37:05;;;;;;;6.30;2.43;;;15.70;9.10;;;;;;5094477;28;20461;-65
2024/04/07 01:39:31;;;;;;;10.07;1.97;;;15.70;9.00;;;;;;5079262;28;20601;-64
2024/04/07 01:41:59;;;;;;;8.10;2.20;;;15.70;8.90;;;;;;5082454;28;20457;-65
2024/04/07 01:44:25;;;;;;;6.93;2.17;;;15.60;2.20;;;;;;5074174;28;20227;-64
2024/04/07 01:46:51;;;;;;;5.80;1.70;;;15.70;1.50;;;;;;5082223;28;20461;-65
2024/04/07 01:49:17;;;;;;;10.50;2.40;;;15.80;1.50;;;;;;5073498;28;20681;-65
2024/04/07 01:51:44;;;;;;;6.90;1.90;;;15.90;1.60;;;;;;5074040;28;20458;-65
2024/04/07 01:54:10;;;;;;;8.17;2.17;;;16.20;1.00;;;;;;5081938;28;20235;-64
2024/04/07 01:56:36;;;;;;;6.30;2.17;;;16.50;1.00;;;;;;5073988;28;20462;-64
2024/04/07 01:59:04;;;;;;;6.17;1.70;;;17.00;1.00;;;;;;5074032;28;20203;-65
2024/04/07 02:01:30;;;;;;;6.50;2.50;;;17.30;1.00;;;;;;5073579;28;20462;-64
2024/04/07 02:03:56;;;;;;;10.47;2.87;;;17.60;1.00;;;;;;5082051;28;21046;-65
2024/04/07 02:06:23;;;;;;;9.87;2.20;;;17.90;1.00;;;;;;5082139;28;20458;-65
2024/04/07 02:08:49;;;;;;;7.90;2.53;;;18.20;1.00;;;;;;5073365;28;20208;-65
2024/04/07 02:11:16;;;;;;;9.70;2.47;;;18.30;1.00;;;;;;5073320;28;20485;-64
2024/04/07 02:13:42;;;;;;;11.40;3.30;;;18.40;1.00;;;;;;5073295;28;20474;-65
2024/04/07 02:16:10;;;;;;;8.57;2.10;;;18.40;1.00;;;;;;5081709;28;20478;-65
2024/04/07 02:18:36;;;;;;;10.30;2.30;;;18.40;1.00;;;;;;5080607;28;20750;-65
2024/04/07 02:21:03;;;;;;;9.43;2.63;;;18.30;1.00;;;;;;5076532;28;20459;-64
2024/04/07 02:23:29;;;;;;;6.33;1.73;;;18.40;1.00;;;;;;5078445;28;20223;-64
2024/04/07 02:25:57;;;;;;;7.47;2.00;;;18.40;1.00;;;;;;5091922;28;20512;-64
2024/04/07 02:28:23;;;;;;;12.00;2.13;;;18.50;1.00;;;;;;5084507;28;20495;-65
2024/04/07 02:30:50;;;;;;;14.50;2.43;;;18.50;1.00;;;;;;5081595;28;20552;-65
2024/04/07 02:33:17;;;;;;;6.80;2.30;;;18.50;1.00;;;;;;5084547;28;20470;-65
2024/04/07 02:35:44;;;;;;;7.50;2.07;;;18.50;1.00;;;;;;5081155;28;20485;-65
2024/04/07 02:38:10;;;;;;;15.37;2.50;;;18.40;1.00;;;;;;5073075;28;20454;-65
2024/04/07 02:40:37;;;;;;;7.30;2.43;;;18.30;1.00;;;;;;5079848;28;20494;-65
2024/04/07 02:43:03;;;;;;;14.70;2.40;;;18.20;1.00;;;;;;5076553;28;20849;-65
2024/04/07 02:48:14;;;;;;;10.63;3.10;;;18.00;1.00;;;;;;5084625;28;20445;-64
2024/04/07 02:50:42;;;;;;;12.00;3.47;;;18.00;1.00;;;;;;5081006;28;20453;-64
2024/04/07 02:53:09;;;;;;;11.07;2.60;;;18.00;1.00;;;;;;5075877;28;20466;-63
2024/04/07 02:55:35;;;;;;;11.70;2.30;;;17.90;1.00;;;;;;5077801;28;20485;-64
2024/04/07 02:58:01;;;;;;;9.90;2.50;;;17.80;1.00;;;;;;5080956;28;20461;-65
2024/04/07 03:00:27;;;;;;;10.70;2.93;;;17.80;1.00;;;;;;5080676;28;20586;-64
2024/04/07 03:02:54;;;;;;;13.97;3.00;;;17.80;1.00;;;;;;5081269;28;20474;-64
2024/04/07 03:05:20;;;;;;;8.83;3.10;;;17.70;1.00;;;;;;5077599;28;20199;-64
2024/04/07 03:07:51;;;;;;;8.70;2.43;;;17.70;2.70;;;;;;5075808;28;20462;-64
2024/04/07 03:10:18;;;;;;;11.70;2.67;;;17.50;2.70;;;;;;5079534;28;20485;-65
2024/04/07 03:12:45;;;;;;;8.93;2.90;;;17.40;2.70;;;;;;5081478;28;20481;-64
2024/04/07 03:15:11;;;;;;;9.17;3.57;;;17.30;2.60;;;;;;5080672;28;20482;-65
2024/04/07 03:17:38;;;;;;;12.47;3.23;;;17.20;2.60;;;;;;5072118;28;20849;-65
2024/04/07 03:20:04;;;;;;;13.50;2.33;;;17.00;2.40;;;;;;5072201;28;20465;-64
2024/04/07 03:22:31;;;;;;;10.57;2.80;;;17.00;2.40;;;;;;5080727;28;20454;-65
2024/04/07 03:24:58;;;;;;;9.80;2.93;;;17.00;2.40;;;;;;5072092;28;20446;-64
2024/04/07 03:27:25;;;;;;;8.20;2.50;;;16.90;2.30;;;;;;5072180;28;20462;-65
2024/04/07 03:29:51;;;;;;;7.10;2.60;;;16.90;2.30;;;;;;5071625;28;20511;-65
2024/04/07 03:32:17;;;;;;;10.50;2.70;;;16.80;2.40;;;;;;5072288;28;20462;-64
2024/04/07 03:34:43;;;;;;;10.80;4.33;;;16.80;5.30;;;;;;5080495;28;20212;-65
2024/04/07 03:37:10;;;;;;;12.90;2.30;;;16.80;6.60;;;;;;5071911;28;20462;-65
2024/04/07 03:39:37;;;;;;;11.50;2.63;;;16.80;6.50;;;;;;5085053;28;20574;-64
2024/04/07 03:42:06;;;;;;;8.40;3.00;;;16.90;3.50;;;;;;5079263;28;20442;-64
2024/04/07 03:44:33;;;;;;;14.97;2.67;;;16.90;9.90;;;;;;5079351;28;20470;-64
2024/04/07 03:46:59;;;;;;;7.00;2.80;;;16.90;3.10;;;;;;5074067;28;20446;-66
2024/04/07 03:49:27;;;;;;;8.00;2.73;;;17.00;2.40;;;;;;5077935;28;20464;-64
2024/04/07 03:51:54;;;;;;;11.93;2.17;;;17.10;2.50;;;;;;5072901;28;20460;-65
2024/04/07 03:54:20;;;;;;;5.63;1.80;;;17.20;2.60;;;;;;5078923;28;20470;-65
2024/04/07 03:56:47;;;;;;;6.03;1.93;;;17.20;2.50;;;;;;5071524;28;21025;-64
2024/04/07 03:59:14;;;;;;;12.57;3.60;;;17.40;2.70;;;;;;5075125;28;20544;-65
2024/04/07 04:01:41;;;;;;;12.70;4.10;;;17.20;2.50;;;;;;5075879;28;20458;-65
2024/04/07 04:04:07;;;;;;;8.63;2.53;;;17.20;2.60;;;;;;5080341;28;20909;-64
2024/04/07 04:06:34;;;;;;;8.83;1.83;;;17.10;2.50;;;;;;5072691;28;20595;-64
2024/04/07 04:09:00;;;;;;;7.90;2.13;;;17.00;2.40;;;;;;5072209;28;20495;-65
2024/04/07 04:11:27;;;;;;;11.67;2.13;;;17.00;2.40;;;;;;5071756;28;20544;-64
2024/04/07 04:13:53;;;;;;;7.07;2.20;;;16.90;2.30;;;;;;5079657;28;20227;-65
2024/04/07 04:16:21;;;;;;;5.97;1.80;;;16.90;2.30;;;;;;5076373;28;20485;-65
2024/04/07 04:18:50;;;;;;;5.90;2.63;;;16.90;2.30;;;;;;5083369;28;20198;-65
2024/04/07 04:21:17;;;;;;;12.27;2.90;;;16.80;2.30;;;;;;5079529;28;20466;-65
2024/04/07 04:23:43;;;;;;;6.60;1.80;;;16.80;2.30;;;;;;5071591;28;20466;-65
2024/04/07 04:26:10;;;;;;;9.73;2.50;;;16.70;2.20;;;;;;5079667;28;20485;-65
2024/04/07 04:28:36;;;;;;;6.87;2.23;;;16.60;3.30;;;;;;5078647;28;20835;-65
2024/04/07 04:31:08;;;;;;;6.37;2.07;;;16.50;2.20;;;;;;5074587;28;20549;-65
2024/04/07 04:33:35;;;;;;;7.73;2.17;;;16.50;2.20;;;;;;5076776;28;20224;-64
2024/04/07 04:36:02;;;;;;;8.90;2.00;;;16.40;9.20;;;;;;5071413;28;20539;-65
2024/04/07 04:38:28;;;;;;;9.13;2.47;;;16.40;9.60;;;;;;5071721;28;20837;-64
2024/04/07 04:40:57;;;;;;;9.00;3.27;;;16.30;9.60;;;;;;5079520;28;20522;-64
2024/04/07 04:43:23;;;;;;;10.83;2.80;;;16.30;9.60;;;;;;5076666;28;20465;-65
2024/04/07 04:46:01;;;;;;;7.43;2.17;;;16.40;9.60;;;;;;5074347;28;21126;-64
2024/04/07 04:48:27;;;;;;;9.73;2.07;;;16.30;9.60;;;;;;5071378;28;20827;-65
2024/04/07 04:50:55;;;;;;;6.67;2.43;;;16.20;9.60;;;;;;5070968;28;20454;-65
2024/04/07 04:53:21;;;;;;;11.13;2.20;;;16.20;9.50;;;;;;5071041;28;20220;-64
2024/04/07 04:55:48;;;;;;;7.10;2.43;;;16.10;9.90;;;;;;5081714;28;20862;-64
2024/04/07 04:58:14;;;;;;;5.80;2.13;;;16.00;13.50;;;;;;5083462;28;20925;-64
2024/04/07 05:00:41;;;;;;;6.47;1.73;;;16.00;15.60;;;;;;5083136;28;20462;-63
2024/04/07 05:03:07;;;;;;;10.13;2.30;;;16.00;9.40;;;;;;5074504;28;20216;-64
2024/04/07 05:05:34;;;;;;;6.80;2.40;;;15.90;13.70;;;;;;5081493;28;20449;-64
2024/04/07 05:08:01;;;;;;;7.70;2.20;;;15.90;9.30;;;;;;5075880;28;20581;-64
2024/04/07 05:10:28;;;;;;;8.43;2.17;;;15.90;9.30;;;;;;5074425;28;20465;-64
2024/04/07 05:12:53;;;;;;;7.57;2.10;;;15.90;9.30;;;;;;5087010;28;20472;-64
2024/04/07 05:15:20;;;;;;;8.57;2.40;;;15.90;9.20;;;;;;5089508;28;20481;-65
2024/04/07 05:17:46;;;;;;;9.40;2.17;;;15.90;9.30;;;;;;5096758;28;20206;-63
2024/04/07 05:20:15;;;;;;;10.50;3.43;;;15.90;9.30;;;;;;5090276;28;20481;-64
2024/04/07 05:22:41;;;;;;;8.53;1.70;;;15.90;6.30;;;;;;5078589;28;20454;-64
2024/04/07 05:25:09;;;;;;;8.70;2.70;;;15.90;4.00;;;;;;5086943;28;20503;-64
2024/04/07 05:27:35;;;;;;;5.50;1.40;;;15.90;5.40;;;;;;5088335;28;20664;-64
2024/04/07 05:30:02;;;;;;;10.83;2.10;;;15.80;4.80;;;;;;5089279;28;20453;-64
2024/04/07 05:32:28;;;;;;;7.07;1.97;;;15.90;9.20;;;;;;5085883;28;20528;-65
2024/04/07 05:34:55;;;;;;;6.90;2.20;;;15.90;9.40;;;;;;5087015;28;20466;-65
2024/04/07 05:37:21;;;;;;;12.50;3.50;;;15.90;16.80;;;;;;5079448;28;20211;-65
2024/04/07 05:39:50;;;;;;;6.57;2.03;;;15.80;16.70;;;;;;5077605;28;20508;-64
2024/04/07 05:42:17;;;;;;;10.63;3.07;;;15.70;16.60;;;;;;5082746;28;20296;-65
2024/04/07 05:44:44;;;;;;;11.47;3.33;;;15.80;16.80;;;;;;5081047;28;20504;-64
2024/04/07 05:47:09;;;;;;;7.03;2.80;;;15.60;16.60;;;;;;5081974;28;20836;-64
2024/04/07 05:49:38;;;;;;;12.57;3.00;;;15.70;18.10;;;;;;5078981;28;20450;-65
2024/04/07 05:52:05;;;;;;;6.70;2.77;;;15.70;23.90;;;;;;5082755;28;20659;-64
2024/04/07 05:54:32;;;;;;;9.67;3.80;;;15.60;23.90;;;;;;5077570;28;20471;-65
2024/04/07 05:56:57;;;;;;;6.93;3.60;;;15.60;23.90;;;;;;5083609;28;20910;-64
2024/04/07 05:59:26;;;;;;;9.00;4.03;;;15.50;24.60;;;;;;5070384;28;20553;-64
2024/04/07 06:01:53;;;;;;;8.20;3.90;;;15.50;29.60;;;;;;5085883;28;20200;-64
2024/04/07 06:04:20;;;;;;;7.40;3.77;;;15.40;30.90;;;;;;5081371;28;20883;-65
2024/04/07 06:06:47;;;;;;;6.93;3.03;;;15.40;30.70;;;;;;5076333;28;20497;-64
2024/04/07 06:09:14;;;;;;;11.73;5.20;;;15.40;25.30;;;;;;5073165;28;20458;-64
2024/04/07 06:11:40;;;;;;;16.07;3.90;;;15.40;29.70;;;;;;5083735;28;20453;-64
2024/04/07 06:14:07;;;;;;;7.30;3.60;;;15.50;30.70;;;;;;5076970;28;20485;-64
2024/04/07 06:16:34;;;;;;;9.80;3.60;;;15.50;31.00;;;;;;5078614;28;20510;-64
2024/04/07 06:19:01;;;;;;;9.60;4.03;;;15.50;31.00;;;;;;5084023;28;20702;-65
2024/04/07 06:21:27;;;;;;;7.00;3.60;;;15.60;31.10;;;;;;5079311;28;20454;-64
2024/04/07 06:23:53;;;;;;;10.00;3.37;;;15.70;29.90;;;;;;5081885;28;20474;-64
2024/04/07 06:26:19;;;;;;;5.67;2.50;;;15.90;25.20;;;;;;5081753;28;20226;-64
2024/04/07 06:28:46;;;;;;;6.77;3.10;;;16.00;24.20;;;;;;5073452;28;20450;-64
2024/04/07 06:31:12;;;;;;;7.87;3.10;;;16.10;24.20;;;;;;5076514;28;20207;-64
2024/04/07 06:33:40;;;;;;;10.03;2.20;;;16.20;22.80;;;;;;5084940;28;20476;-65
2024/04/07 06:36:07;;;;;;;11.37;1.93;;;16.40;17.20;;;;;;5073811;28;20282;-65
2024/04/07 06:38:33;;;;;;;8.67;1.87;;;16.60;17.30;;;;;;5072929;28;20542;-65
2024/04/07 06:41:00;;;;;;;6.63;2.70;;;16.70;17.40;;;;;;5082879;28;20446;-64
2024/04/07 06:43:27;;;;;;;6.70;1.73;;;16.80;17.40;;;;;;5080669;28;20558;-65
2024/04/07 06:45:56;;;;;;;12.90;2.10;;;16.80;17.40;;;;;;5081808;28;20442;-64
2024/04/07 06:48:23;;;;;;;6.40;1.63;;;16.90;17.50;;;;;;5080910;28;20454;-63
2024/04/07 06:50:50;;;;;;;8.93;1.87;;;17.00;17.50;;;;;;5086413;28;20544;-65
2024/04/07 06:53:17;;;;;;;6.17;1.63;;;17.10;17.60;;;;;;5079164;28;20474;-65
2024/04/07 06:55:44;;;;;;;6.03;1.63;;;17.10;18.30;;;;;;5075882;28;20478;-65
2024/04/07 06:58:11;;;;;;;7.20;2.00;;;17.10;18.30;;;;;;5072426;28;20962;-65
2024/04/07 07:00:36;;;;;;;8.10;3.40;;;17.10;17.60;;;;;;5081433;28;20450;-64
2024/04/07 07:03:03;;;;;;;7.20;2.30;;;17.10;17.60;;;;;;5081439;28;20499;-64
2024/04/07 07:05:29;;;;;;;5.50;1.77;;;17.20;17.70;;;;;;5076018;28;20188;-65
2024/04/07 07:07:57;;;;;;;6.40;1.80;;;17.30;17.80;;;;;;5083462;28;20963;-65
2024/04/07 07:10:23;;;;;;;6.17;1.73;;;17.30;17.80;;;;;;5080206;28;20654;-65
2024/04/07 07:12:50;;;;;;;6.40;1.60;;;17.30;17.80;;;;;;5083398;28;20482;-63
2024/04/07 07:15:16;;;;;;;5.30;2.03;;;17.30;17.80;;;;;;5072637;28;20219;-65
2024/04/07 07:17:43;;;;;;;6.30;1.83;;;17.20;17.70;;;;;;5083186;28;20458;-65
2024/04/07 07:20:09;;;;;;;8.47;2.50;;;17.40;17.90;;;;;;5075023;28;20454;-65
2024/04/07 07:22:36;;;;;;;6.53;1.80;;;17.40;17.90;;;;;;5082357;28;20485;-65
2024/04/07 07:25:04;;;;;;;4.50;1.70;;;17.40;17.90;;;;;;5078380;28;20533;-65
2024/04/07 07:27:31;;;;;;;8.13;2.20;;;17.40;17.90;;;;;;5077534;28;20462;-64
2024/04/07 07:29:57;;;;;;;8.63;2.20;;;17.30;17.80;;;;;;5071681;28;20466;-65
2024/04/07 07:32:24;;;;;;;5.00;1.80;;;17.20;17.70;;;;;;5077139;28;20480;-65
2024/04/07 07:34:50;;;;;;;7.70;2.60;;;17.30;17.80;;;;;;5080563;28;20726;-64
2024/04/07 07:37:16;;;;;;;8.50;2.20;;;17.20;17.70;;;;;;5079900;28;20478;-65
2024/04/07 07:39:42;;;;;;;10.47;2.00;;;17.30;17.80;;;;;;5071079;28;20200;-64
2024/04/07 07:42:10;;;;;;;7.13;2.47;;;17.40;18.80;;;;;;5074446;28;20454;-65
2024/04/07 07:44:36;;;;;;;8.57;2.20;;;17.40;17.90;;;;;;5076131;28;20311;-64
2024/04/07 07:47:03;;;;;;;7.37;2.47;;;17.50;17.90;;;;;;5071505;28;21053;-64
2024/04/07 07:49:29;;;;;;;9.63;2.33;;;17.50;17.90;;;;;;5075472;28;20192;-64
2024/04/07 07:51:56;;;;;;;8.33;2.00;;;17.50;17.90;;;;;;5084077;28;20457;-64
2024/04/07 07:54:22;;;;;;;10.20;2.43;;;17.50;17.90;;;;;;5078794;28;20601;-63
2024/04/07 07:56:48;;;;;;;6.87;2.00;;;17.60;18.00;;;;;;5079620;28;20569;-65
2024/04/07 07:59:16;;;;;;;5.40;2.10;;;17.60;18.00;;;;;;5070853;28;20204;-65
2024/04/07 08:01:43;;;;;;;7.47;2.77;;;17.70;18.00;;;;;;5071368;28;20473;-64
2024/04/07 08:04:09;;;;;;;5.70;2.20;;;17.80;17.90;;;;;;5071573;28;20502;-65
2024/04/07 08:06:37;;;;;;;9.83;1.97;;;18.00;10.90;;;;;;5078211;28;20883;-65
2024/04/07 08:09:03;;;;;;;13.33;2.67;;;18.20;14.20;;;;;;5074543;28;20286;-65
2024/04/07 08:11:30;;;;;;;11.03;2.47;;;18.40;16.20;;;;;;5076580;28;20549;-65
2024/04/07 08:13:56;;;;;;;6.73;2.03;;;18.50;11.20;;;;;;5077252;28;20219;-68
2024/04/07 08:16:24;;;;;;;12.63;2.33;;;18.70;11.30;;;;;;5079313;28;20479;-65
2024/04/07 08:18:50;;;;;;;11.33;3.23;;;18.80;11.20;;;;;;5080864;28;20195;-65
2024/04/07 08:21:18;;;;;;;10.80;2.83;;;19.00;11.50;;;;;;5076020;28;20458;-64
2024/04/07 08:23:45;;;;;;;11.13;2.90;;;19.20;11.70;;;;;;5086001;28;20574;-65
2024/04/07 08:26:11;;;;;;;9.40;3.07;;;19.30;4.20;;;;;;5074607;28;20449;-65
2024/04/07 08:28:38;;;;;;;9.40;2.20;;;19.40;4.10;;;;;;5083343;28;20948;-65
2024/04/07 08:31:04;;;;;;;5.80;2.07;;;19.50;4.20;;;;;;5074468;28;20462;-65
2024/04/07 08:33:32;;;;;;;8.40;2.30;;;19.70;4.30;;;;;;5081823;28;20484;-65
2024/04/07 08:35:58;;;;;;;6.63;2.30;;;19.90;4.10;;;;;;5085662;28;20215;-65
2024/04/07 08:38:25;;;;;;;9.20;2.97;;;20.20;4.70;;;;;;5075109;28;20975;-65
2024/04/07 08:40:50;;;;;;;6.77;2.43;;;20.50;4.90;;;;;;5083629;28;20592;-65
2024/04/07 08:43:19;;;;;;;9.60;2.50;;;20.60;4.90;;;;;;5083487;28;20470;-65
2024/04/07 08:45:47;;;;;;;9.10;2.83;;;20.80;1.00;;;;;;5075097;28;20458;-65
2024/04/07 08:48:15;;;;;;;10.07;3.20;;;21.00;1.80;;;;;;5079064;28;20452;-65
2024/04/07 08:50:43;;;;;;;10.20;2.70;;;21.10;1.00;;;;;;5078638;28;20472;-64
2024/04/07 08:53:13;;;;;;;7.03;1.90;;;21.40;1.00;;;;;;5078420;28;20481;-65
2024/04/07 08:55:39;;;;;;;7.27;1.70;;;21.50;1.00;;;;;;5079638;28;20452;-65
2024/04/07 08:58:07;;;;;;;5.77;1.13;;;21.60;1.00;;;;;;5086183;28;20840;-65
2024/04/07 09:00:34;;;;;;;8.97;2.03;;;21.60;1.00;;;;;;5080223;28;20841;-65
2024/04/07 09:03:03;;;;;;;5.30;1.40;;;21.80;1.00;;;;;;5083671;28;20543;-65
2024/04/07 09:05:29;;;;;;;7.00;2.50;;;22.20;1.00;;;;;;5075008;28;20462;-65
2024/04/07 09:07:57;;;;;;;6.30;1.60;;;22.50;1.00;;;;;;5083876;28;20456;-65
2024/04/07 09:10:23;;;;;;;6.90;1.83;;;22.70;1.00;;;;;;5080352;28;20948;-65
2024/04/07 09:12:52;;;;;;;8.77;1.37;;;23.00;1.00;;;;;;5077976;28;20474;-65
2024/04/07 09:15:18;;;;;;;6.10;1.70;;;23.60;1.00;;;;;;5074805;28;20201;-65
2024/04/07 09:17:45;;;;;;;6.80;1.27;;;23.80;1.00;;;;;;5083408;28;20883;-65
2024/04/07 09:20:17;;;;;;;6.67;2.20;;;23.70;1.00;;;;;;5082441;28;20454;-65
2024/04/07 09:22:44;;;;;;;4.80;1.27;;;23.50;1.00;;;;;;5082648;28;20457;-65
2024/04/07 09:25:11;;;;;;;6.83;1.50;;;24.10;1.00;;;;;;5074661;28;20457;-65
2024/04/07 09:27:38;;;;;;;4.30;1.00;;;24.30;1.00;;;;;;5074531;28;20507;-65
2024/04/07 09:30:05;;;;;;;4.60;0.83;;;24.30;1.00;;;;;;5082422;28;20457;-65
2024/04/07 09:32:32;;;;;;;5.73;1.10;;;24.00;1.00;;;;;;5082432;28;20942;-65
2024/04/07 09:34:57;;;;;;;4.40;1.10;;;23.80;1.00;;;;;;5082615;28;20542;-64
2024/04/07 09:37:24;;;;;;;7.90;1.20;;;23.30;1.00;;;;;;5074311;28;20904;-65
2024/04/07 09:39:50;;;;;;;7.20;1.30;;;23.10;1.00;;;;;;5082190;28;20562;-64
2024/04/07 09:42:20;;;;;;;6.03;1.10;;;23.10;1.00;;;;;;5073088;28;20460;-65
2024/04/07 09:44:47;;;;;;;5.67;1.00;;;23.20;1.00;;;;;;5082651;28;20268;-64
2024/04/07 09:47:15;;;;;;;6.23;1.47;;;23.00;1.00;;;;;;5073906;28;20869;-65
2024/04/07 09:49:42;;;;;;;5.53;1.30;;;23.10;1.00;;;;;;5073842;28;20457;-65
2024/04/07 09:52:14;;;;;;;6.57;1.73;;;23.10;1.00;;;;;;5074089;28;20488;-64
2024/04/07 09:54:45;;;;;;;5.70;1.37;;;23.70;1.00;;;;;;5073906;28;20485;-65
2024/04/07 09:57:14;;;;;;;7.17;1.13;;;24.00;1.00;;;;;;5073829;28;20478;-65
2024/04/07 09:59:42;;;;;;;5.70;1.23;;;24.30;1.00;;;;;;5080984;28;20951;-65
2024/04/07 10:02:11;;;;;;;4.93;1.50;;;24.80;1.00;;;;;;5082680;28;20553;-65
2024/04/07 10:04:38;;;;;;;5.90;1.27;;;24.60;1.00;;;;;;5081859;28;21024;-66
2024/04/07 10:07:06;;;;;;;10.57;1.57;;;24.50;1.00;;;;;;5073466;28;20455;-65
2024/04/07 10:09:34;;;;;;;5.20;1.10;;;24.60;1.00;;;;;;5073294;28;20454;-65
2024/04/07 10:12:01;;;;;;;6.93;1.70;;;24.10;1.00;;;;;;5081793;28;20479;-65
2024/04/07 10:14:36;;;;;;;4.50;1.00;;;23.80;1.00;;;;;;5081819;28;20477;-65
2024/04/07 10:17:05;;;;;;;6.47;1.00;;;23.70;1.00;;;;;;5073574;28;20569;-65
2024/04/07 10:19:31;;;;;;;5.13;1.23;;;23.70;1.00;;;;;;5073126;28;20882;-65
2024/04/07 10:21:58;;;;;;;9.60;1.73;;;23.60;1.00;;;;;;5081839;28;20537;-65
2024/04/07 10:24:25;;;;;;;6.53;1.37;;;23.30;1.00;;;;;;5073246;28;20224;-65
2024/04/07 10:26:53;;;;;;;5.97;1.07;;;23.30;1.00;;;;;;5073358;28;20450;-65
2024/04/07 10:29:19;;;;;;;9.00;1.63;;;23.30;1.00;;;;;;5072988;28;20458;-65
2024/04/07 10:31:47;;;;;;;10.50;1.80;;;23.20;1.00;;;;;;5081905;28;20840;-65
2024/04/07 10:34:14;;;;;;;6.57;1.60;;;23.40;1.00;;;;;;5081651;28;20483;-65
2024/04/07 10:36:41;;;;;;;8.80;1.67;;;23.30;1.00;;;;;;5080751;28;20734;-65
2024/04/07 10:39:15;;;;;;;5.10;1.40;;;23.50;1.00;;;;;;5073456;28;20462;-65
2024/04/07 10:41:43;;;;;;;5.70;1.60;;;23.60;1.00;;;;;;5081443;28;20450;-65
2024/04/07 10:44:09;;;;;;;5.47;1.40;;;24.00;1.00;;;;;;5072982;28;20557;-65
2024/04/07 10:46:36;;;;;;;7.27;1.63;;;24.90;1.00;;;;;;5081491;28;20447;-65
2024/04/07 10:49:04;;;;;;;5.80;1.50;;;26.00;1.00;;;;;;5083621;28;20843;-65
2024/04/07 10:51:33;;;;;;;5.77;1.50;;;26.50;1.00;;;;;;5085134;28;20457;-65
2024/04/07 10:54:01;;;;;;;4.90;1.27;;;27.20;1.00;;;;;;5073936;28;20513;-65
2024/04/07 10:56:28;;;;;;;9.50;1.97;;;26.80;1.00;;;;;;5072703;28;20907;-65
2024/04/07 10:58:55;;;;;;;6.87;1.30;;;27.40;1.00;;;;;;5081324;28;20454;-65
2024/04/07 11:01:22;;;;;;;9.63;1.60;;;27.00;1.00;;;;;;5072520;28;20466;-65
2024/04/07 11:03:49;;;;;;;5.33;1.00;;;26.70;1.00;;;;;;5081024;28;20474;-65
2024/04/07 11:06:16;;;;;;;6.13;1.17;;;25.90;1.00;;;;;;5072432;28;20460;-65
2024/04/07 11:08:43;;;;;;;6.80;1.60;;;25.90;1.00;;;;;;5072476;28;20575;-66
2024/04/07 11:11:10;;;;;;;9.03;2.43;;;26.20;1.00;;;;;;5072146;28;20458;-65
2024/04/07 11:13:36;;;;;;;6.10;1.37;;;26.70;1.00;;;;;;5072413;28;20855;-65
2024/04/07 11:16:03;;;;;;;5.60;1.70;;;26.80;1.00;;;;;;5072662;28;20552;-65
2024/04/07 11:18:30;;;;;;;6.77;1.40;;;26.60;1.00;;;;;;5080703;28;20442;-65
2024/04/07 11:20:59;;;;;;;7.50;1.60;;;26.40;1.00;;;;;;5071678;28;20454;-65
2024/04/07 11:23:25;;;;;;;6.90;1.35;;;26.00;1.00;;;;;;5071233;28;20503;-67
2024/04/07 11:25:55;;;;;;;6.20;1.67;;;26.10;1.00;;;;;;5073596;28;20195;-69
2024/04/07 11:28:22;;;;;;;6.40;1.50;;;25.70;1.00;;;;;;5078053;28;20828;-65
2024/04/07 11:30:50;;;;;;;5.47;0.90;;;25.60;1.00;;;;;;5076117;28;20546;-65
2024/04/07 11:33:17;;;;;;;5.20;0.80;;;24.90;1.00;;;;;;5076288;28;20470;-65
2024/04/07 11:35:45;;;;;;;7.50;1.60;;;24.10;1.00;;;;;;5075411;28;20864;-65
2024/04/07 11:38:12;;;;;;;6.73;1.10;;;23.70;1.00;;;;;;5075544;28;20473;-65
2024/04/07 11:40:39;;;;;;;4.63;1.20;;;23.80;1.00;;;;;;5076868;28;20450;-65
2024/04/07 11:43:06;;;;;;;6.80;1.70;;;24.20;1.00;;;;;;5071752;28;21001;-65
2024/04/07 11:45:33;;;;;;;7.30;1.53;;;24.70;1.00;;;;;;5078626;28;20462;-65
2024/04/07 11:48:00;;;;;;;5.03;1.13;;;25.20;1.00;;;;;;5074413;28;20446;-66
2024/04/07 11:50:27;;;;;;;10.27;1.87;;;26.20;1.00;;;;;;5080578;28;20451;-65
2024/04/07 11:52:52;;;;;;;6.20;1.43;;;26.80;1.00;;;;;;5087829;28;20514;-65
2024/04/07 11:55:19;;;;;;;5.37;1.07;;;27.10;1.00;;;;;;5091907;28;20449;-65
2024/04/07 11:57:45;;;;;;;5.90;1.50;;;27.10;1.00;;;;;;5083645;28;20215;-65
2024/04/07 12:00:14;;;;;;;6.40;1.57;;;27.10;1.00;;;;;;5082776;28;20456;-65
2024/04/07 12:02:40;;;;;;;5.77;2.37;;;28.10;1.00;;;;;;5084134;28;20215;-65
2024/04/07 12:05:08;;;;;;;4.40;1.23;;;28.80;1.00;;;;;;5082236;28;20937;-65
2024/04/07 12:07:35;;;;;;;6.53;1.33;;;28.90;1.00;;;;;;5076835;28;20450;-66
2024/04/07 12:10:02;;;;;;;5.40;1.10;;;28.30;1.00;;;;;;5073240;28;20493;-65
2024/04/07 12:12:28;;;;;;;6.50;1.63;;;28.20;1.00;;;;;;5091156;28;20456;-65
2024/04/07 12:14:55;;;;;;;6.17;1.50;;;28.10;1.00;;;;;;5074951;28;20456;-65
2024/04/07 12:17:23;;;;;;;6.43;1.50;;;28.30;1.00;;;;;;5078411;28;20489;-65
2024/04/07 12:19:49;;;;;;;7.33;1.40;;;27.90;1.00;;;;;;5079597;28;20882;-65
2024/04/07 12:22:16;;;;;;;8.13;1.80;;;27.40;1.00;;;;;;5094977;28;20850;-65
2024/04/07 12:24:43;;;;;;;7.33;1.50;;;27.10;1.00;;;;;;5084727;28;20469;-65
2024/04/07 12:27:09;;;;;;;6.50;1.27;;;27.70;1.00;;;;;;5096687;28;20529;-65
2024/04/07 12:29:37;;;;;;;4.40;1.20;;;28.60;1.00;;;;;;5086973;28;20527;-65
2024/04/07 12:32:03;;;;;;;7.13;1.67;;;28.80;1.00;;;;;;5085910;28;20529;-65
2024/04/07 12:34:31;;;;;;;5.03;1.03;;;27.80;1.00;;;;;;5091988;28;20466;-66
2024/04/07 12:36:57;;;;;;;5.30;1.40;;;27.60;1.00;;;;;;5080147;28;20476;-65
2024/04/07 12:39:24;;;;;;;7.30;2.07;;;27.70;1.00;;;;;;5079961;28;20450;-65
2024/04/07 12:41:50;;;;;;;8.30;1.70;;;27.80;1.00;;;;;;5080242;28;20204;-65
2024/04/07 12:44:17;;;;;;;8.70;2.20;;;27.90;1.00;;;;;;5098658;28;20472;-65
2024/04/07 12:46:44;;;;;;;7.80;1.80;;;27.60;1.00;;;;;;5075759;28;20193;-66
2024/04/07 12:49:11;;;;;;;7.10;1.97;;;26.80;1.00;;;;;;5084059;28;20465;-66
2024/04/07 12:51:39;;;;;;;5.37;1.63;;;26.80;1.00;;;;;;5096723;28;20441;-66
2024/04/07 12:54:06;;;;;;;7.73;1.47;;;26.90;1.00;;;;;;5097270;28;20513;-66